sensor_id;sensor_type;location;lat;lon;timestamp;pressure;altitude;pressure_sealevel;temperature
12875;BMP180;6505;51.114;13.128;2023-03-01T00:01:31;100847.00;;;7.30
12875;BMP180;6505;51.114;13.128;2023-03-01T00:04:00;100846.00;;;7.30
12875;BMP180;6505;51.114;13.128;2023-03-01T00:06:28;100843.00;;;7.30
12875;BMP180;6505;51.114;13.128;2023-03-01T00:08:57;100855.00;;;7.30
12875;BMP180;6505;51.114;13.128;2023-03-01T00:11:28;100847.00;;;7.30
12875;BMP180;6505;51.114;13.128;2023-03-01T00:13:59;100853.00;;;7.20
12875;BMP180;6505;51.114;13.128;2023-03-01T00:16:30;100844.00;;;7.20
12875;BMP180;6505;51.114;13.128;2023-03-01T00:19:00;100827.00;;;7.20
12875;BMP180;6505;51.114;13.128;2023-03-01T00:21:28;100845.00;;;7.20
12875;BMP180;6505;51.114;13.128;2023-03-01T00:23:58;100856.00;;;7.20
12875;BMP180;6505;51.114;13.128;2023-03-01T00:26:27;100851.00;;;7.20
12875;BMP180;6505;51.114;13.128;2023-03-01T00:28:58;100845.00;;;7.20
12875;BMP180;6505;51.114;13.128;2023-03-01T00:31:28;100825.00;;;7.20
12875;BMP180;6505;51.114;13.128;2023-03-01T00:33:59;100829.00;;;7.10
12875;BMP180;6505;51.114;13.128;2023-03-01T00:36:32;100827.00;;;7.10
12875;BMP180;6505;51.114;13.128;2023-03-01T00:39:04;100832.00;;;7.10
12875;BMP180;6505;51.114;13.128;2023-03-01T00:41:32;100817.00;;;7.10
12875;BMP180;6505;51.114;13.128;2023-03-01T00:44:01;100827.00;;;7.10
12875;BMP180;6505;51.114;13.128;2023-03-01T00:46:29;100830.00;;;7.10
12875;BMP180;6505;51.114;13.128;2023-03-01T00:48:58;100831.00;;;7.10
12875;BMP180;6505;51.114;13.128;2023-03-01T00:51:29;100822.00;;;7.10
12875;BMP180;6505;51.114;13.128;2023-03-01T00:54:00;100812.00;;;7.00
12875;BMP180;6505;51.114;13.128;2023-03-01T00:56:30;100824.00;;;6.90
12875;BMP180;6505;51.114;13.128;2023-03-01T00:58:59;100830.00;;;7.00
12875;BMP180;6505;51.114;13.128;2023-03-01T01:01:30;100820.00;;;7.00
12875;BMP180;6505;51.114;13.128;2023-03-01T01:04:00;100805.00;;;7.00
12875;BMP180;6505;51.114;13.128;2023-03-01T01:06:31;100802.00;;;7.00
12875;BMP180;6505;51.114;13.128;2023-03-01T01:09:01;100764.00;;;7.00
12875;BMP180;6505;51.114;13.128;2023-03-01T01:11:31;100795.00;;;7.00
12875;BMP180;6505;51.114;13.128;2023-03-01T01:13:59;100787.00;;;6.90
12875;BMP180;6505;51.114;13.128;2023-03-01T01:16:30;100772.00;;;6.90
12875;BMP180;6505;51.114;13.128;2023-03-01T01:18:58;100796.00;;;6.90
12875;BMP180;6505;51.114;13.128;2023-03-01T01:21:27;100792.00;;;6.90
12875;BMP180;6505;51.114;13.128;2023-03-01T01:23:57;100795.00;;;6.90
12875;BMP180;6505;51.114;13.128;2023-03-01T01:26:28;100797.00;;;6.90
12875;BMP180;6505;51.114;13.128;2023-03-01T01:28:59;100782.00;;;6.90
12875;BMP180;6505;51.114;13.128;2023-03-01T01:31:29;100785.00;;;6.90
12875;BMP180;6505;51.114;13.128;2023-03-01T01:34:00;100786.00;;;6.70
12875;BMP180;6505;51.114;13.128;2023-03-01T01:36:29;100794.00;;;6.90
12875;BMP180;6505;51.114;13.128;2023-03-01T01:38:59;100794.00;;;6.80
12875;BMP180;6505;51.114;13.128;2023-03-01T01:41:29;100792.00;;;6.80
12875;BMP180;6505;51.114;13.128;2023-03-01T01:44:16;100772.00;;;6.80
12875;BMP180;6505;51.114;13.128;2023-03-01T01:46:50;100783.00;;;6.80
12875;BMP180;6505;51.114;13.128;2023-03-01T01:49:29;100788.00;;;6.80
12875;BMP180;6505;51.114;13.128;2023-03-01T01:52:07;100771.00;;;6.70
12875;BMP180;6505;51.114;13.128;2023-03-01T01:54:43;100775.00;;;6.70
12875;BMP180;6505;51.114;13.128;2023-03-01T01:57:16;100763.00;;;6.70
12875;BMP180;6505;51.114;13.128;2023-03-01T01:59:51;100778.00;;;6.70
12875;BMP180;6505;51.114;13.128;2023-03-01T02:02:20;100765.00;;;6.70
12875;BMP180;6505;51.114;13.128;2023-03-01T02:04:54;100762.00;;;6.70
12875;BMP180;6505;51.114;13.128;2023-03-01T02:07:26;100768.00;;;6.70
12875;BMP180;6505;51.114;13.128;2023-03-01T02:09:54;100761.00;;;6.70
12875;BMP180;6505;51.114;13.128;2023-03-01T02:12:24;100777.00;;;6.70
12875;BMP180;6505;51.114;13.128;2023-03-01T02:14:55;100775.00;;;6.70
12875;BMP180;6505;51.114;13.128;2023-03-01T02:17:24;100774.00;;;6.70
12875;BMP180;6505;51.114;13.128;2023-03-01T02:20:06;100748.00;;;6.60
12875;BMP180;6505;51.114;13.128;2023-03-01T02:22:38;100769.00;;;6.60
12875;BMP180;6505;51.114;13.128;2023-03-01T02:25:22;100772.00;;;6.60
12875;BMP180;6505;51.114;13.128;2023-03-01T02:27:56;100777.00;;;6.60
12875;BMP180;6505;51.114;13.128;2023-03-01T02:30:28;100761.00;;;6.60
12875;BMP180;6505;51.114;13.128;2023-03-01T02:32:59;100767.00;;;6.60
12875;BMP180;6505;51.114;13.128;2023-03-01T02:35:33;100724.00;;;6.50
12875;BMP180;6505;51.114;13.128;2023-03-01T02:38:06;100762.00;;;6.50
12875;BMP180;6505;51.114;13.128;2023-03-01T02:40:37;100766.00;;;6.50
12875;BMP180;6505;51.114;13.128;2023-03-01T02:43:10;100696.00;;;6.30
12875;BMP180;6505;51.114;13.128;2023-03-01T02:45:48;100761.00;;;6.30
12875;BMP180;6505;51.114;13.128;2023-03-01T02:48:17;100771.00;;;6.50
12875;BMP180;6505;51.114;13.128;2023-03-01T02:51:05;100754.00;;;6.50
12875;BMP180;6505;51.114;13.128;2023-03-01T02:53:43;100758.00;;;6.50
12875;BMP180;6505;51.114;13.128;2023-03-01T02:56:13;100747.00;;;6.50
12875;BMP180;6505;51.114;13.128;2023-03-01T02:58:43;100738.00;;;6.50
12875;BMP180;6505;51.114;13.128;2023-03-01T03:01:17;100742.00;;;6.50
12875;BMP180;6505;51.114;13.128;2023-03-01T03:03:45;100725.00;;;6.20
12875;BMP180;6505;51.114;13.128;2023-03-01T03:06:13;100752.00;;;6.40
12875;BMP180;6505;51.114;13.128;2023-03-01T03:08:42;100742.00;;;6.40
12875;BMP180;6505;51.114;13.128;2023-03-01T03:11:10;100745.00;;;6.40
12875;BMP180;6505;51.114;13.128;2023-03-01T03:13:38;100735.00;;;6.40
12875;BMP180;6505;51.114;13.128;2023-03-01T03:16:16;100740.00;;;6.40
12875;BMP180;6505;51.114;13.128;2023-03-01T03:18:44;100737.00;;;6.40
12875;BMP180;6505;51.114;13.128;2023-03-01T03:21:13;100740.00;;;6.40
12875;BMP180;6505;51.114;13.128;2023-03-01T03:23:41;100736.00;;;6.40
12875;BMP180;6505;51.114;13.128;2023-03-01T03:26:09;100724.00;;;6.40
12875;BMP180;6505;51.114;13.128;2023-03-01T03:28:42;100723.00;;;6.30
12875;BMP180;6505;51.114;13.128;2023-03-01T03:31:09;100722.00;;;6.40
12875;BMP180;6505;51.114;13.128;2023-03-01T03:33:39;100716.00;;;6.30
12875;BMP180;6505;51.114;13.128;2023-03-01T03:36:07;100703.00;;;6.30
12875;BMP180;6505;51.114;13.128;2023-03-01T03:38:40;100700.00;;;6.30
12875;BMP180;6505;51.114;13.128;2023-03-01T03:41:08;100711.00;;;6.30
12875;BMP180;6505;51.114;13.128;2023-03-01T03:43:38;100706.00;;;6.30
12875;BMP180;6505;51.114;13.128;2023-03-01T03:46:07;100719.00;;;6.30
12875;BMP180;6505;51.114;13.128;2023-03-01T03:48:38;100715.00;;;6.30
12875;BMP180;6505;51.114;13.128;2023-03-01T03:51:10;100686.00;;;6.30
12875;BMP180;6505;51.114;13.128;2023-03-01T03:53:38;100719.00;;;6.30
12875;BMP180;6505;51.114;13.128;2023-03-01T03:56:07;100703.00;;;6.20
12875;BMP180;6505;51.114;13.128;2023-03-01T03:58:35;100712.00;;;6.20
12875;BMP180;6505;51.114;13.128;2023-03-01T04:01:04;100702.00;;;6.20
12875;BMP180;6505;51.114;13.128;2023-03-01T04:03:33;100707.00;;;6.20
12875;BMP180;6505;51.114;13.128;2023-03-01T04:06:03;100702.00;;;6.20
12875;BMP180;6505;51.114;13.128;2023-03-01T04:08:33;100636.00;;;6.20
12875;BMP180;6505;51.114;13.128;2023-03-01T04:11:04;100709.00;;;6.20
12875;BMP180;6505;51.114;13.128;2023-03-01T04:13:46;100718.00;;;6.20
12875;BMP180;6505;51.114;13.128;2023-03-01T04:16:14;100716.00;;;6.10
12875;BMP180;6505;51.114;13.128;2023-03-01T04:18:42;100716.00;;;6.20
12875;BMP180;6505;51.114;13.128;2023-03-01T04:21:11;100723.00;;;6.10
12875;BMP180;6505;51.114;13.128;2023-03-01T04:23:40;100723.00;;;6.10
12875;BMP180;6505;51.114;13.128;2023-03-01T04:26:08;100715.00;;;6.10
12875;BMP180;6505;51.114;13.128;2023-03-01T04:28:39;100713.00;;;6.10
12875;BMP180;6505;51.114;13.128;2023-03-01T04:31:12;100722.00;;;6.10
12875;BMP180;6505;51.114;13.128;2023-03-01T04:33:45;100720.00;;;6.10
12875;BMP180;6505;51.114;13.128;2023-03-01T04:36:17;100650.00;;;6.10
12875;BMP180;6505;51.114;13.128;2023-03-01T04:38:46;100713.00;;;6.10
12875;BMP180;6505;51.114;13.128;2023-03-01T04:41:18;100679.00;;;6.00
12875;BMP180;6505;51.114;13.128;2023-03-01T04:43:46;100738.00;;;5.90
12875;BMP180;6505;51.114;13.128;2023-03-01T04:46:18;100711.00;;;6.00
12875;BMP180;6505;51.114;13.128;2023-03-01T04:48:47;100714.00;;;5.80
12875;BMP180;6505;51.114;13.128;2023-03-01T04:51:16;100720.00;;;5.70
12875;BMP180;6505;51.114;13.128;2023-03-01T04:53:45;100712.00;;;5.90
12875;BMP180;6505;51.114;13.128;2023-03-01T04:56:13;100639.00;;;6.00
12875;BMP180;6505;51.114;13.128;2023-03-01T04:58:42;100710.00;;;6.00
12875;BMP180;6505;51.114;13.128;2023-03-01T05:01:11;100643.00;;;6.00
12875;BMP180;6505;51.114;13.128;2023-03-01T05:03:45;100703.00;;;5.90
12875;BMP180;6505;51.114;13.128;2023-03-01T05:06:16;100710.00;;;5.90
12875;BMP180;6505;51.114;13.128;2023-03-01T05:08:45;100714.00;;;5.90
12875;BMP180;6505;51.114;13.128;2023-03-01T05:11:13;100704.00;;;5.90
12875;BMP180;6505;51.114;13.128;2023-03-01T05:13:42;100698.00;;;5.90
12875;BMP180;6505;51.114;13.128;2023-03-01T05:16:10;100698.00;;;5.90
12875;BMP180;6505;51.114;13.128;2023-03-01T05:18:40;100700.00;;;5.90
12875;BMP180;6505;51.114;13.128;2023-03-01T05:21:11;100701.00;;;5.90
12875;BMP180;6505;51.114;13.128;2023-03-01T05:23:41;100702.00;;;5.90
12875;BMP180;6505;51.114;13.128;2023-03-01T05:26:09;100695.00;;;5.90
12875;BMP180;6505;51.114;13.128;2023-03-01T05:28:54;100695.00;;;5.80
12875;BMP180;6505;51.114;13.128;2023-03-01T05:31:26;100703.00;;;5.80
12875;BMP180;6505;51.114;13.128;2023-03-01T05:33:54;100707.00;;;5.80
12875;BMP180;6505;51.114;13.128;2023-03-01T05:36:22;100706.00;;;5.80
12875;BMP180;6505;51.114;13.128;2023-03-01T05:38:51;100701.00;;;5.80
12875;BMP180;6505;51.114;13.128;2023-03-01T05:41:19;100698.00;;;5.80
12875;BMP180;6505;51.114;13.128;2023-03-01T05:43:47;100702.00;;;5.80
12875;BMP180;6505;51.114;13.128;2023-03-01T05:46:15;100699.00;;;5.80
12875;BMP180;6505;51.114;13.128;2023-03-01T05:48:43;100706.00;;;5.80
12875;BMP180;6505;51.114;13.128;2023-03-01T05:51:11;100708.00;;;5.70
12875;BMP180;6505;51.114;13.128;2023-03-01T05:53:39;100704.00;;;5.70
12875;BMP180;6505;51.114;13.128;2023-03-01T05:56:09;100717.00;;;5.70
12875;BMP180;6505;51.114;13.128;2023-03-01T05:58:37;100714.00;;;5.70
12875;BMP180;6505;51.114;13.128;2023-03-01T06:01:05;100720.00;;;5.70
12875;BMP180;6505;51.114;13.128;2023-03-01T06:03:38;100718.00;;;5.70
12875;BMP180;6505;51.114;13.128;2023-03-01T06:06:06;100707.00;;;5.70
12875;BMP180;6505;51.114;13.128;2023-03-01T06:08:34;100643.00;;;5.70
12875;BMP180;6505;51.114;13.128;2023-03-01T06:11:02;100699.00;;;5.70
12875;BMP180;6505;51.114;13.128;2023-03-01T06:13:31;100714.00;;;5.60
12875;BMP180;6505;51.114;13.128;2023-03-01T06:15:59;100720.00;;;5.70
12875;BMP180;6505;51.114;13.128;2023-03-01T06:18:27;100707.00;;;5.70
12875;BMP180;6505;51.114;13.128;2023-03-01T06:20:56;100696.00;;;5.60
12875;BMP180;6505;51.114;13.128;2023-03-01T06:23:24;100635.00;;;5.60
12875;BMP180;6505;51.114;13.128;2023-03-01T06:25:53;100700.00;;;5.60
12875;BMP180;6505;51.114;13.128;2023-03-01T06:28:21;100710.00;;;5.60
12875;BMP180;6505;51.114;13.128;2023-03-01T06:30:51;100682.00;;;5.60
12875;BMP180;6505;51.114;13.128;2023-03-01T06:33:19;100703.00;;;5.60
12875;BMP180;6505;51.114;13.128;2023-03-01T06:35:50;100707.00;;;5.60
12875;BMP180;6505;51.114;13.128;2023-03-01T06:38:18;100711.00;;;5.60
12875;BMP180;6505;51.114;13.128;2023-03-01T06:40:52;100703.00;;;5.60
12875;BMP180;6505;51.114;13.128;2023-03-01T06:43:20;100709.00;;;5.60
12875;BMP180;6505;51.114;13.128;2023-03-01T06:45:48;100704.00;;;5.40
12875;BMP180;6505;51.114;13.128;2023-03-01T06:48:17;100716.00;;;5.60
12875;BMP180;6505;51.114;13.128;2023-03-01T06:50:45;100725.00;;;5.60
12875;BMP180;6505;51.114;13.128;2023-03-01T06:53:13;100657.00;;;5.60
12875;BMP180;6505;51.114;13.128;2023-03-01T06:55:41;100720.00;;;5.60
12875;BMP180;6505;51.114;13.128;2023-03-01T06:58:09;100723.00;;;5.60
12875;BMP180;6505;51.114;13.128;2023-03-01T07:00:38;100717.00;;;5.60
12875;BMP180;6505;51.114;13.128;2023-03-01T07:03:08;100712.00;;;5.60
12875;BMP180;6505;51.114;13.128;2023-03-01T07:05:37;100707.00;;;5.60
12875;BMP180;6505;51.114;13.128;2023-03-01T07:08:05;100716.00;;;5.60
12875;BMP180;6505;51.114;13.128;2023-03-01T07:10:33;100701.00;;;5.60
12875;BMP180;6505;51.114;13.128;2023-03-01T07:13:01;100717.00;;;5.60
12875;BMP180;6505;51.114;13.128;2023-03-01T07:15:29;100711.00;;;5.60
12875;BMP180;6505;51.114;13.128;2023-03-01T07:17:57;100714.00;;;5.60
12875;BMP180;6505;51.114;13.128;2023-03-01T07:20:25;100710.00;;;5.70
12875;BMP180;6505;51.114;13.128;2023-03-01T07:22:55;100707.00;;;5.70
12875;BMP180;6505;51.114;13.128;2023-03-01T07:25:25;100712.00;;;5.70
12875;BMP180;6505;51.114;13.128;2023-03-01T07:27:54;100718.00;;;5.70
12875;BMP180;6505;51.114;13.128;2023-03-01T07:30:22;100703.00;;;5.70
12875;BMP180;6505;51.114;13.128;2023-03-01T07:32:53;100697.00;;;5.70
12875;BMP180;6505;51.114;13.128;2023-03-01T07:35:22;100686.00;;;5.70
12875;BMP180;6505;51.114;13.128;2023-03-01T07:37:51;100697.00;;;5.70
12875;BMP180;6505;51.114;13.128;2023-03-01T07:40:20;100657.00;;;5.70
12875;BMP180;6505;51.114;13.128;2023-03-01T07:42:48;100692.00;;;5.80
12875;BMP180;6505;51.114;13.128;2023-03-01T07:45:16;100696.00;;;5.80
12875;BMP180;6505;51.114;13.128;2023-03-01T07:47:44;100700.00;;;5.80
12875;BMP180;6505;51.114;13.128;2023-03-01T07:50:12;100697.00;;;5.80
12875;BMP180;6505;51.114;13.128;2023-03-01T07:52:44;100707.00;;;5.90
12875;BMP180;6505;51.114;13.128;2023-03-01T07:55:12;100637.00;;;5.90
12875;BMP180;6505;51.114;13.128;2023-03-01T07:57:42;100694.00;;;5.90
12875;BMP180;6505;51.114;13.128;2023-03-01T08:00:12;100692.00;;;5.90
12875;BMP180;6505;51.114;13.128;2023-03-01T08:02:40;100688.00;;;5.90
12875;BMP180;6505;51.114;13.128;2023-03-01T08:05:09;100696.00;;;6.00
12875;BMP180;6505;51.114;13.128;2023-03-01T08:07:37;100697.00;;;6.00
12875;BMP180;6505;51.114;13.128;2023-03-01T08:10:06;100683.00;;;6.00
12875;BMP180;6505;51.114;13.128;2023-03-01T08:12:34;100677.00;;;6.00
12875;BMP180;6505;51.114;13.128;2023-03-01T08:15:05;100673.00;;;6.00
12875;BMP180;6505;51.114;13.128;2023-03-01T08:17:33;100678.00;;;6.10
12875;BMP180;6505;51.114;13.128;2023-03-01T08:20:01;100671.00;;;6.10
12875;BMP180;6505;51.114;13.128;2023-03-01T08:22:30;100671.00;;;6.10
12875;BMP180;6505;51.114;13.128;2023-03-01T08:24:58;100672.00;;;6.10
12875;BMP180;6505;51.114;13.128;2023-03-01T08:27:26;100667.00;;;6.20
12875;BMP180;6505;51.114;13.128;2023-03-01T08:29:54;100667.00;;;6.20
12875;BMP180;6505;51.114;13.128;2023-03-01T08:32:23;100680.00;;;6.20
12875;BMP180;6505;51.114;13.128;2023-03-01T08:34:51;100669.00;;;6.30
12875;BMP180;6505;51.114;13.128;2023-03-01T08:37:19;100679.00;;;6.30
12875;BMP180;6505;51.114;13.128;2023-03-01T08:39:47;100674.00;;;6.40
12875;BMP180;6505;51.114;13.128;2023-03-01T08:42:15;100683.00;;;6.40
12875;BMP180;6505;51.114;13.128;2023-03-01T08:44:43;100669.00;;;6.50
12875;BMP180;6505;51.114;13.128;2023-03-01T08:47:12;100682.00;;;6.50
12875;BMP180;6505;51.114;13.128;2023-03-01T08:49:42;100629.00;;;6.50
12875;BMP180;6505;51.114;13.128;2023-03-01T08:52:10;100666.00;;;6.60
12875;BMP180;6505;51.114;13.128;2023-03-01T08:54:38;100667.00;;;6.60
12875;BMP180;6505;51.114;13.128;2023-03-01T08:57:06;100666.00;;;6.60
12875;BMP180;6505;51.114;13.128;2023-03-01T08:59:35;100653.00;;;6.60
12875;BMP180;6505;51.114;13.128;2023-03-01T09:02:04;100638.00;;;6.70
12875;BMP180;6505;51.114;13.128;2023-03-01T09:04:32;100642.00;;;6.70
12875;BMP180;6505;51.114;13.128;2023-03-01T09:07:02;100650.00;;;6.70
12875;BMP180;6505;51.114;13.128;2023-03-01T09:09:30;100581.00;;;6.70
12875;BMP180;6505;51.114;13.128;2023-03-01T09:11:58;100644.00;;;6.80
12875;BMP180;6505;51.114;13.128;2023-03-01T09:14:26;100644.00;;;6.80
12875;BMP180;6505;51.114;13.128;2023-03-01T09:16:54;100644.00;;;6.80
12875;BMP180;6505;51.114;13.128;2023-03-01T09:19:22;100652.00;;;6.80
12875;BMP180;6505;51.114;13.128;2023-03-01T09:21:53;100637.00;;;6.80
12875;BMP180;6505;51.114;13.128;2023-03-01T09:24:24;100640.00;;;6.80
12875;BMP180;6505;51.114;13.128;2023-03-01T09:26:54;100633.00;;;6.90
12875;BMP180;6505;51.114;13.128;2023-03-01T09:29:23;100626.00;;;6.90
12875;BMP180;6505;51.114;13.128;2023-03-01T09:31:52;100622.00;;;6.90
12875;BMP180;6505;51.114;13.128;2023-03-01T09:34:22;100561.00;;;6.90
12875;BMP180;6505;51.114;13.128;2023-03-01T09:36:51;100621.00;;;6.90
12875;BMP180;6505;51.114;13.128;2023-03-01T09:39:20;100621.00;;;7.00
12875;BMP180;6505;51.114;13.128;2023-03-01T09:41:58;100616.00;;;7.00
12875;BMP180;6505;51.114;13.128;2023-03-01T09:44:36;100609.00;;;7.00
12875;BMP180;6505;51.114;13.128;2023-03-01T09:47:14;100610.00;;;7.00
12875;BMP180;6505;51.114;13.128;2023-03-01T09:49:53;100620.00;;;7.00
12875;BMP180;6505;51.114;13.128;2023-03-01T09:52:34;100616.00;;;7.10
12875;BMP180;6505;51.114;13.128;2023-03-01T09:55:11;100610.00;;;7.10
12875;BMP180;6505;51.114;13.128;2023-03-01T09:57:50;100630.00;;;7.10
12875;BMP180;6505;51.114;13.128;2023-03-01T10:00:32;100618.00;;;7.10
12875;BMP180;6505;51.114;13.128;2023-03-01T10:03:12;100641.00;;;7.10
12875;BMP180;6505;51.114;13.128;2023-03-01T10:05:54;100593.00;;;7.10
12875;BMP180;6505;51.114;13.128;2023-03-01T10:08:31;100623.00;;;7.20
12875;BMP180;6505;51.114;13.128;2023-03-01T10:11:04;100617.00;;;7.20
12875;BMP180;6505;51.114;13.128;2023-03-01T10:13:46;100636.00;;;7.20
12875;BMP180;6505;51.114;13.128;2023-03-01T10:16:21;100635.00;;;7.30
12875;BMP180;6505;51.114;13.128;2023-03-01T10:18:57;100564.00;;;7.30
12875;BMP180;6505;51.114;13.128;2023-03-01T10:21:27;100628.00;;;7.30
12875;BMP180;6505;51.114;13.128;2023-03-01T10:24:10;100558.00;;;7.30
12875;BMP180;6505;51.114;13.128;2023-03-01T10:26:50;100566.00;;;7.40
12875;BMP180;6505;51.114;13.128;2023-03-01T10:29:27;100626.00;;;7.40
12875;BMP180;6505;51.114;13.128;2023-03-01T10:31:57;100628.00;;;7.40
12875;BMP180;6505;51.114;13.128;2023-03-01T10:34:30;100619.00;;;7.40
12875;BMP180;6505;51.114;13.128;2023-03-01T10:37:09;100610.00;;;7.40
12875;BMP180;6505;51.114;13.128;2023-03-01T10:39:56;100609.00;;;7.50
12875;BMP180;6505;51.114;13.128;2023-03-01T10:42:29;100599.00;;;7.50
12875;BMP180;6505;51.114;13.128;2023-03-01T10:45:16;100601.00;;;7.50
12875;BMP180;6505;51.114;13.128;2023-03-01T10:47:45;100609.00;;;7.50
12875;BMP180;6505;51.114;13.128;2023-03-01T10:50:22;100607.00;;;7.60
12875;BMP180;6505;51.114;13.128;2023-03-01T10:52:59;100606.00;;;7.60
12875;BMP180;6505;51.114;13.128;2023-03-01T10:55:33;100616.00;;;7.60
12875;BMP180;6505;51.114;13.128;2023-03-01T10:58:18;100609.00;;;7.50
12875;BMP180;6505;51.114;13.128;2023-03-01T11:00:50;100602.00;;;7.60
12875;BMP180;6505;51.114;13.128;2023-03-01T11:03:23;100595.00;;;7.70
12875;BMP180;6505;51.114;13.128;2023-03-01T11:06:03;100591.00;;;7.70
12875;BMP180;6505;51.114;13.128;2023-03-01T11:08:38;100529.00;;;7.70
12875;BMP180;6505;51.114;13.128;2023-03-01T11:11:21;100597.00;;;7.70
12875;BMP180;6505;51.114;13.128;2023-03-01T11:13:56;100598.00;;;7.70
12875;BMP180;6505;51.114;13.128;2023-03-01T11:16:35;100599.00;;;7.70
12875;BMP180;6505;51.114;13.128;2023-03-01T11:19:19;100597.00;;;7.80
12875;BMP180;6505;51.114;13.128;2023-03-01T11:21:57;100576.00;;;7.80
12875;BMP180;6505;51.114;13.128;2023-03-01T11:24:34;100536.00;;;7.80
12875;BMP180;6505;51.114;13.128;2023-03-01T11:27:15;100586.00;;;7.80
12875;BMP180;6505;51.114;13.128;2023-03-01T11:29:46;100578.00;;;7.80
12875;BMP180;6505;51.114;13.128;2023-03-01T11:32:24;100573.00;;;7.80
12875;BMP180;6505;51.114;13.128;2023-03-01T11:34:59;100586.00;;;7.90
12875;BMP180;6505;51.114;13.128;2023-03-01T11:37:37;100579.00;;;7.90
12875;BMP180;6505;51.114;13.128;2023-03-01T11:40:15;100591.00;;;7.90
12875;BMP180;6505;51.114;13.128;2023-03-01T11:42:59;100575.00;;;7.70
12875;BMP180;6505;51.114;13.128;2023-03-01T11:45:42;100579.00;;;8.00
12875;BMP180;6505;51.114;13.128;2023-03-01T11:48:34;100573.00;;;8.00
12875;BMP180;6505;51.114;13.128;2023-03-01T11:51:24;100581.00;;;8.00
12875;BMP180;6505;51.114;13.128;2023-03-01T11:54:13;100574.00;;;8.00
12875;BMP180;6505;51.114;13.128;2023-03-01T11:56:50;100562.00;;;8.00
12875;BMP180;6505;51.114;13.128;2023-03-01T11:59:54;100561.00;;;8.00
12875;BMP180;6505;51.114;13.128;2023-03-01T12:03:00;100556.00;;;8.10
12875;BMP180;6505;51.114;13.128;2023-03-01T12:06:00;100559.00;;;8.10
12875;BMP180;6505;51.114;13.128;2023-03-01T12:08:40;100500.00;;;8.10
12875;BMP180;6505;51.114;13.128;2023-03-01T12:11:25;100548.00;;;8.10
12875;BMP180;6505;51.114;13.128;2023-03-01T12:14:39;100529.00;;;8.20
12875;BMP180;6505;51.114;13.128;2023-03-01T12:17:43;100543.00;;;8.20
12875;BMP180;6505;51.114;13.128;2023-03-01T12:20:22;100535.00;;;8.20
12875;BMP180;6505;51.114;13.128;2023-03-01T12:23:38;100533.00;;;8.30
12875;BMP180;6505;51.114;13.128;2023-03-01T12:26:29;100534.00;;;8.30
12875;BMP180;6505;51.114;13.128;2023-03-01T12:29:29;100528.00;;;8.30
12875;BMP180;6505;51.114;13.128;2023-03-01T12:32:25;100518.00;;;8.30
12875;BMP180;6505;51.114;13.128;2023-03-01T12:35:29;100509.00;;;8.30
12875;BMP180;6505;51.114;13.128;2023-03-01T12:38:16;100506.00;;;8.40
12875;BMP180;6505;51.114;13.128;2023-03-01T12:44:07;100498.00;;;8.40
12875;BMP180;6505;51.114;13.128;2023-03-01T12:46:57;100503.00;;;8.40
12875;BMP180;6505;51.114;13.128;2023-03-01T12:49:32;100517.00;;;8.30
12875;BMP180;6505;51.114;13.128;2023-03-01T12:52:11;100496.00;;;8.50
12875;BMP180;6505;51.114;13.128;2023-03-01T12:54:42;100482.00;;;8.50
12875;BMP180;6505;51.114;13.128;2023-03-01T12:57:19;100490.00;;;8.60
12875;BMP180;6505;51.114;13.128;2023-03-01T13:00:06;100487.00;;;8.60
12875;BMP180;6505;51.114;13.128;2023-03-01T13:02:47;100498.00;;;8.60
12875;BMP180;6505;51.114;13.128;2023-03-01T13:05:31;100493.00;;;8.60
12875;BMP180;6505;51.114;13.128;2023-03-01T13:08:08;100498.00;;;8.70
12875;BMP180;6505;51.114;13.128;2023-03-01T13:10:48;100440.00;;;8.70
12875;BMP180;6505;51.114;13.128;2023-03-01T13:13:21;100487.00;;;8.70
12875;BMP180;6505;51.114;13.128;2023-03-01T13:15:51;100484.00;;;8.80
12875;BMP180;6505;51.114;13.128;2023-03-01T13:18:32;100427.00;;;8.70
12875;BMP180;6505;51.114;13.128;2023-03-01T13:21:03;100478.00;;;8.60
12875;BMP180;6505;51.114;13.128;2023-03-01T13:23:39;100473.00;;;8.70
12875;BMP180;6505;51.114;13.128;2023-03-01T13:26:13;100483.00;;;8.60
12875;BMP180;6505;51.114;13.128;2023-03-01T13:28:52;100463.00;;;8.90
12875;BMP180;6505;51.114;13.128;2023-03-01T13:31:56;100477.00;;;8.90
12875;BMP180;6505;51.114;13.128;2023-03-01T13:35:02;100457.00;;;8.90
12875;BMP180;6505;51.114;13.128;2023-03-01T13:37:35;100414.00;;;8.90
12875;BMP180;6505;51.114;13.128;2023-03-01T13:40:57;100479.00;;;8.90
12875;BMP180;6505;51.114;13.128;2023-03-01T13:43:32;100461.00;;;8.90
12875;BMP180;6505;51.114;13.128;2023-03-01T13:46:09;100477.00;;;9.00
12875;BMP180;6505;51.114;13.128;2023-03-01T13:48:39;100420.00;;;9.00
12875;BMP180;6505;51.114;13.128;2023-03-01T13:51:10;100485.00;;;9.10
12875;BMP180;6505;51.114;13.128;2023-03-01T13:53:44;100470.00;;;8.90
12875;BMP180;6505;51.114;13.128;2023-03-01T13:56:17;100471.00;;;9.10
12875;BMP180;6505;51.114;13.128;2023-03-01T13:58:52;100464.00;;;9.10
12875;BMP180;6505;51.114;13.128;2023-03-01T14:01:27;100415.00;;;9.10
12875;BMP180;6505;51.114;13.128;2023-03-01T14:03:57;100458.00;;;9.20
12875;BMP180;6505;51.114;13.128;2023-03-01T14:06:27;100453.00;;;9.20
12875;BMP180;6505;51.114;13.128;2023-03-01T14:09:05;100457.00;;;9.20
12875;BMP180;6505;51.114;13.128;2023-03-01T14:12:06;100450.00;;;9.20
12875;BMP180;6505;51.114;13.128;2023-03-01T14:14:56;100447.00;;;9.30
12875;BMP180;6505;51.114;13.128;2023-03-01T14:17:53;100451.00;;;9.30
12875;BMP180;6505;51.114;13.128;2023-03-01T14:20:26;100435.00;;;9.30
12875;BMP180;6505;51.114;13.128;2023-03-01T14:22:57;100439.00;;;9.30
12875;BMP180;6505;51.114;13.128;2023-03-01T14:25:28;100437.00;;;9.30
12875;BMP180;6505;51.114;13.128;2023-03-01T14:28:02;100380.00;;;9.40
12875;BMP180;6505;51.114;13.128;2023-03-01T14:30:37;100435.00;;;9.40
12875;BMP180;6505;51.114;13.128;2023-03-01T14:33:21;100432.00;;;9.30
12875;BMP180;6505;51.114;13.128;2023-03-01T14:35:58;100420.00;;;9.40
12875;BMP180;6505;51.114;13.128;2023-03-01T14:38:33;100427.00;;;9.50
12875;BMP180;6505;51.114;13.128;2023-03-01T14:41:06;100416.00;;;9.30
12875;BMP180;6505;51.114;13.128;2023-03-01T14:43:36;100424.00;;;9.50
12875;BMP180;6505;51.114;13.128;2023-03-01T14:46:06;100408.00;;;9.50
12875;BMP180;6505;51.114;13.128;2023-03-01T14:48:39;100417.00;;;9.60